Time;durP1;ratioP1;P1;durP2;ratioP2;P2;SDS_P1;SDS_P2;PMS_P1;PMS_P2;Temp;Humidity;BMP_temperature;BMP_pressure;BME280_temperature;BME280_humidity;BME280_pressure;Samples;Min_cycle;Max_cycle;Signal;HPM_P1;HPM_P2
2022/06/18 00:01:33;;;;;;;10.18;3.80;;;21.80;98.10;;;;;;5055157;28;20044;-84
2022/06/18 00:04:19;;;;;;;9.65;3.85;;;21.80;98.40;;;;;;5056911;28;20048;-84
2022/06/18 00:06:49;;;;;;;8.43;3.80;;;21.70;98.40;;;;;;5038254;28;20051;-84
2022/06/18 00:09:14;;;;;;;9.48;3.85;;;21.60;99.30;;;;;;5055568;28;20128;-84
2022/06/18 00:14:24;;;;;;;8.95;4.10;;;21.40;99.90;;;;;;5068807;28;20036;-84
2022/06/18 00:16:50;;;;;;;9.10;3.83;;;21.40;99.90;;;;;;5058026;28;20044;-84
2022/06/18 00:19:16;;;;;;;11.30;4.28;;;21.30;99.90;;;;;;5055500;28;20294;-85
2022/06/18 00:21:42;;;;;;;8.77;4.07;;;21.30;99.90;;;;;;5056145;28;20036;-84
2022/06/18 00:24:20;;;;;;;9.77;4.75;;;21.30;99.90;;;;;;5061504;28;20036;-85
2022/06/18 00:26:46;;;;;;;8.65;4.50;;;21.30;99.90;;;;;;5054960;28;20123;-85
2022/06/18 00:29:17;;;;;;;12.35;4.47;;;21.20;99.90;;;;;;5054043;28;20165;-84
2022/06/18 00:31:42;;;;;;;9.20;4.72;;;21.10;99.90;;;;;;5039748;28;20048;-84
2022/06/18 00:34:08;;;;;;;7.93;4.30;;;21.00;99.90;;;;;;5038338;28;20033;-84
2022/06/18 00:36:37;;;;;;;8.88;4.85;;;20.90;99.90;;;;;;5055499;28;20085;-84
2022/06/18 00:39:04;;;;;;;9.27;4.68;;;20.80;99.90;;;;;;5055303;28;20043;-85
2022/06/18 00:41:32;;;;;;;8.73;4.50;;;20.80;99.90;;;;;;5055815;28;20097;-84
2022/06/18 00:44:17;;;;;;;11.13;5.10;;;20.70;99.90;;;;;;5038426;28;20059;-84
2022/06/18 00:46:55;;;;;;;9.10;4.72;;;20.70;99.90;;;;;;5053967;28;20052;-84
2022/06/18 00:49:33;;;;;;;9.82;4.45;;;20.60;99.90;;;;;;5055194;28;20066;-84
2022/06/18 00:52:29;;;;;;;10.07;5.15;;;20.70;99.90;;;;;;5055483;28;20086;-85
2022/06/18 00:55:01;;;;;;;11.13;5.10;;;20.70;99.90;;;;;;5054869;28;20047;-85
2022/06/18 00:57:51;;;;;;;10.00;4.72;;;20.60;99.90;;;;;;5038344;28;20402;-84
2022/06/18 01:00:22;;;;;;;8.93;4.95;;;20.60;99.90;;;;;;5053247;28;20048;-84
2022/06/18 01:02:49;;;;;;;11.60;4.85;;;20.60;99.90;;;;;;5055550;28;20047;-84
2022/06/18 01:05:27;;;;;;;10.68;5.10;;;20.60;99.90;;;;;;5049373;28;20043;-84
2022/06/18 01:08:16;;;;;;;9.45;4.80;;;20.60;99.90;;;;;;5053762;28;20044;-84
2022/06/18 01:10:46;;;;;;;9.85;5.00;;;20.50;99.90;;;;;;5055237;28;20107;-84
2022/06/18 01:13:16;;;;;;;11.45;5.30;;;20.50;99.90;;;;;;5055976;28;20678;-84
2022/06/18 01:15:43;;;;;;;9.43;5.45;;;20.50;99.90;;;;;;5054581;28;20040;-84
2022/06/18 01:18:11;;;;;;;10.48;5.32;;;20.50;99.90;;;;;;5053900;28;20048;-84
2022/06/18 01:20:48;;;;;;;10.13;5.47;;;20.40;99.90;;;;;;5055310;28;20819;-84
2022/06/18 01:23:25;;;;;;;11.82;5.78;;;20.40;99.90;;;;;;5053907;28;20083;-84
2022/06/18 01:25:53;;;;;;;10.63;5.95;;;20.30;99.90;;;;;;5036855;28;20651;-84
2022/06/18 01:28:20;;;;;;;10.50;5.35;;;20.30;99.90;;;;;;5050515;28;20040;-84
2022/06/18 01:30:46;;;;;;;9.35;5.53;;;20.30;99.90;;;;;;5037504;28;20043;-84
2022/06/18 01:33:13;;;;;;;9.85;5.30;;;20.30;99.90;;;;;;5053738;28;20457;-84
2022/06/18 01:35:42;;;;;;;11.32;5.78;;;20.30;99.90;;;;;;5053854;28;20036;-84
2022/06/18 01:38:10;;;;;;;10.95;5.63;;;20.30;99.90;;;;;;5054145;28;20517;-84
2022/06/18 01:40:44;;;;;;;9.63;5.50;;;20.30;99.90;;;;;;5036801;28;20115;-84
2022/06/18 01:43:14;;;;;;;9.60;5.88;;;20.30;99.90;;;;;;5073933;28;20078;-85
2022/06/18 01:45:41;;;;;;;11.48;5.68;;;20.20;99.90;;;;;;5071924;28;20088;-84
2022/06/18 01:48:27;;;;;;;9.55;5.60;;;20.20;99.90;;;;;;5056654;28;20067;-84
2022/06/18 01:50:58;;;;;;;10.30;5.93;;;20.10;99.90;;;;;;5054114;28;20055;-84
2022/06/18 01:53:29;;;;;;;9.13;6.18;;;20.10;99.90;;;;;;5040437;28;20047;-84
2022/06/18 01:56:00;;;;;;;10.35;6.70;;;20.10;99.90;;;;;;5054262;28;20498;-85
2022/06/18 01:58:42;;;;;;;11.45;6.00;;;20.10;99.90;;;;;;5053154;28;20041;-84
2022/06/18 02:01:15;;;;;;;11.73;6.80;;;20.10;99.90;;;;;;5037824;28;20107;-84
2022/06/18 02:03:41;;;;;;;10.73;6.65;;;20.00;99.90;;;;;;5073695;28;20036;-84
2022/06/18 02:06:08;;;;;;;9.88;6.38;;;20.00;99.90;;;;;;5054738;28;20181;-84
2022/06/18 02:08:34;;;;;;;10.13;6.32;;;20.00;99.90;;;;;;5036995;28;20427;-84
2022/06/18 02:11:05;;;;;;;11.05;6.75;;;20.00;99.90;;;;;;5051777;28;20401;-84
2022/06/18 02:13:53;;;;;;;10.40;6.32;;;19.90;99.90;;;;;;5036197;28;20090;-84
2022/06/18 02:16:23;;;;;;;10.55;6.80;;;19.90;99.90;;;;;;5053189;28;20054;-84
2022/06/18 02:18:50;;;;;;;11.60;7.05;;;19.90;99.90;;;;;;5037026;28;20078;-84
2022/06/18 02:21:19;;;;;;;10.20;6.70;;;19.90;99.90;;;;;;5060389;28;20424;-84
2022/06/18 02:23:44;;;;;;;11.35;6.88;;;19.90;99.90;;;;;;5036605;28;20108;-84
2022/06/18 02:26:10;;;;;;;10.93;7.07;;;19.90;99.90;;;;;;5036166;28;20165;-84
2022/06/18 02:28:39;;;;;;;11.38;7.20;;;19.80;99.90;;;;;;5052304;28;20090;-84
2022/06/18 02:31:06;;;;;;;11.88;7.18;;;19.80;99.90;;;;;;5061923;28;20110;-84
2022/06/18 02:33:39;;;;;;;11.25;7.00;;;19.80;99.90;;;;;;5055285;28;20044;-84
2022/06/18 02:36:19;;;;;;;10.10;7.03;;;19.80;99.90;;;;;;5052783;28;20036;-83
2022/06/18 02:38:47;;;;;;;11.68;6.97;;;19.80;99.90;;;;;;5053248;28;20059;-84
2022/06/18 02:41:13;;;;;;;9.75;6.93;;;19.70;99.90;;;;;;5080376;28;20508;-84
2022/06/18 02:43:43;;;;;;;10.35;6.88;;;19.70;99.90;;;;;;5073070;28;20124;-85
2022/06/18 02:46:10;;;;;;;10.60;7.18;;;19.70;99.90;;;;;;5043296;28;20078;-84
2022/06/18 02:48:37;;;;;;;13.63;6.82;;;19.70;99.90;;;;;;5036321;28;20040;-84
2022/06/18 02:51:03;;;;;;;11.85;7.25;;;19.60;99.90;;;;;;5053651;28;20116;-84
2022/06/18 02:53:31;;;;;;;12.25;7.70;;;19.60;99.90;;;;;;5035954;28;20162;-84
2022/06/18 02:56:00;;;;;;;11.52;7.65;;;19.50;99.90;;;;;;5036646;28;20046;-84
2022/06/18 02:58:28;;;;;;;11.50;7.57;;;19.50;99.90;;;;;;5035371;28;20557;-84
2022/06/18 03:01:00;;;;;;;12.95;7.47;;;19.40;99.90;;;;;;5062054;28;20459;-84
2022/06/18 03:03:27;;;;;;;;;;;19.40;99.90;;;;;;5073541;28;20046;-84
2022/06/18 03:05:53;;;;;;;11.30;7.78;;;19.30;99.90;;;;;;5052554;28;19990;-84
2022/06/18 03:08:20;;;;;;;13.23;7.65;;;19.20;99.90;;;;;;5052597;28;20514;-84
2022/06/18 03:13:31;;;;;;;11.77;7.75;;;19.20;99.90;;;;;;5052764;28;20052;-84
2022/06/18 03:15:57;;;;;;;11.88;8.13;;;19.20;99.90;;;;;;5051998;28;20128;-84
2022/06/18 03:18:25;;;;;;;12.18;8.10;;;19.10;99.90;;;;;;5053227;28;20123;-84
2022/06/18 03:21:29;;;;;;;12.10;8.23;;;19.10;99.90;;;;;;5036425;28;20115;-84
2022/06/18 03:23:54;;;;;;;12.30;8.63;;;19.20;99.90;;;;;;5036213;28;20037;-84
2022/06/18 03:26:20;;;;;;;10.90;8.35;;;19.10;99.90;;;;;;5052562;28;20101;-84
2022/06/18 03:28:46;;;;;;;13.20;9.40;;;19.10;99.90;;;;;;5055781;28;20048;-84
2022/06/18 03:31:12;;;;;;;11.87;8.93;;;19.10;99.90;;;;;;5057235;28;20405;-85
2022/06/18 03:33:38;;;;;;;13.13;9.10;;;19.10;99.90;;;;;;5038001;28;20241;-85
2022/06/18 03:36:05;;;;;;;14.32;8.95;;;19.10;99.90;;;;;;5056671;28;20054;-84
2022/06/18 03:38:31;;;;;;;12.90;8.82;;;19.10;99.90;;;;;;5038443;28;20063;-84
2022/06/18 03:40:56;;;;;;;14.48;9.40;;;19.10;99.90;;;;;;5057253;28;20063;-84
2022/06/18 03:43:24;;;;;;;11.68;9.50;;;19.10;99.90;;;;;;5055589;28;20039;-84
2022/06/18 03:45:53;;;;;;;12.48;9.65;;;19.10;99.90;;;;;;5055714;28;20043;-84
2022/06/18 03:48:56;;;;;;;12.15;9.13;;;19.00;99.90;;;;;;5039573;28;20075;-84
2022/06/18 03:51:23;;;;;;;13.43;9.50;;;19.10;99.90;;;;;;5055066;28;20053;-84
2022/06/18 03:53:49;;;;;;;12.27;9.10;;;19.00;99.90;;;;;;5045490;28;20078;-84
2022/06/18 03:56:18;;;;;;;13.18;9.77;;;19.00;99.90;;;;;;5076272;28;20036;-84
2022/06/18 03:58:45;;;;;;;12.32;9.38;;;19.00;99.90;;;;;;5032555;28;20033;-84
2022/06/18 04:01:13;;;;;;;13.55;9.82;;;19.10;99.90;;;;;;5068080;28;20564;-84
2022/06/18 04:03:39;;;;;;;14.65;9.88;;;19.00;99.90;;;;;;5064980;28;20045;-85
2022/06/18 04:06:05;;;;;;;13.32;9.57;;;19.00;99.90;;;;;;5055400;28;20039;-84
2022/06/18 04:08:31;;;;;;;12.25;9.15;;;19.00;99.90;;;;;;5038020;28;20052;-84
2022/06/18 04:10:57;;;;;;;13.55;9.68;;;19.10;99.90;;;;;;5067062;28;20035;-84
2022/06/18 04:13:23;;;;;;;12.02;9.07;;;19.10;99.90;;;;;;5074578;28;20066;-84
2022/06/18 04:15:49;;;;;;;13.57;9.88;;;19.10;99.90;;;;;;5055400;28;20041;-84
2022/06/18 04:18:15;;;;;;;14.50;10.25;;;19.10;99.90;;;;;;5055984;28;20480;-84
2022/06/18 04:20:41;;;;;;;13.20;10.45;;;19.10;99.90;;;;;;5055431;28;20032;-84
2022/06/18 04:23:09;;;;;;;13.88;9.98;;;19.20;99.90;;;;;;5055809;28;20079;-84
2022/06/18 04:25:35;;;;;;;13.77;10.23;;;19.20;99.90;;;;;;5038582;28;20040;-84
2022/06/18 04:28:01;;;;;;;13.23;9.90;;;19.20;99.90;;;;;;5054137;28;20041;-84
2022/06/18 04:30:29;;;;;;;13.48;10.10;;;19.20;99.90;;;;;;5062945;28;20050;-84
2022/06/18 04:32:55;;;;;;;12.35;10.32;;;19.20;99.90;;;;;;5067695;28;20079;-84
2022/06/18 04:35:21;;;;;;;14.93;11.20;;;19.20;99.90;;;;;;5054948;28;20075;-84
2022/06/18 04:37:48;;;;;;;14.90;10.73;;;19.30;99.90;;;;;;5038459;28;20036;-84
2022/06/18 04:40:17;;;;;;;12.68;10.85;;;19.30;99.90;;;;;;5040607;28;20036;-84
2022/06/18 04:42:43;;;;;;;13.90;11.02;;;19.30;99.90;;;;;;5055377;28;20075;-84
2022/06/18 04:45:09;;;;;;;14.98;11.05;;;19.40;99.90;;;;;;5038614;28;20090;-84
2022/06/18 04:47:35;;;;;;;16.42;11.98;;;19.50;99.90;;;;;;5053839;28;20044;-84
2022/06/18 04:50:01;;;;;;;15.18;11.35;;;19.50;99.90;;;;;;5058385;28;20043;-84
2022/06/18 04:52:26;;;;;;;16.30;11.52;;;19.50;99.90;;;;;;5065304;28;20040;-85
2022/06/18 04:54:52;;;;;;;16.50;11.85;;;19.50;99.90;;;;;;5061083;28;20040;-84
2022/06/18 04:57:22;;;;;;;15.80;11.75;;;19.60;99.90;;;;;;5071551;28;20397;-84
2022/06/18 04:59:48;;;;;;;17.45;12.43;;;19.60;99.90;;;;;;5058277;28;20032;-84
2022/06/18 05:02:20;;;;;;;15.15;11.73;;;19.60;99.90;;;;;;5058073;28;20039;-84
2022/06/18 05:04:46;;;;;;;17.85;12.20;;;19.70;99.90;;;;;;5064912;28;20044;-84
2022/06/18 05:07:11;;;;;;;15.70;12.07;;;19.70;99.90;;;;;;5037928;28;20036;-85
2022/06/18 05:09:37;;;;;;;17.80;11.70;;;19.80;99.90;;;;;;5055257;28;20044;-85
2022/06/18 05:12:03;;;;;;;18.15;12.20;;;19.70;99.90;;;;;;5053688;28;20044;-84
2022/06/18 05:14:30;;;;;;;17.70;12.85;;;19.80;99.90;;;;;;5055004;28;20040;-84
2022/06/18 05:16:57;;;;;;;17.10;12.25;;;19.80;99.90;;;;;;5037465;28;20044;-84
2022/06/18 05:19:27;;;;;;;21.67;13.25;;;19.90;99.90;;;;;;5038015;28;20037;-84
2022/06/18 05:21:53;;;;;;;17.40;12.85;;;19.90;99.90;;;;;;5049979;28;20044;-84
2022/06/18 05:24:19;;;;;;;18.17;12.88;;;19.90;99.90;;;;;;5054474;28;20498;-84
2022/06/18 05:26:55;;;;;;;18.10;13.10;;;19.90;99.90;;;;;;5053761;28;20502;-84
2022/06/18 05:29:21;;;;;;;18.90;13.27;;;20.00;99.90;;;;;;5054596;28;20417;-84
2022/06/18 05:31:47;;;;;;;19.80;13.63;;;20.00;99.90;;;;;;5074375;28;20065;-85
2022/06/18 05:34:13;;;;;;;19.55;13.10;;;20.00;99.90;;;;;;5069085;28;20035;-84
2022/06/18 05:36:39;;;;;;;20.20;13.93;;;20.00;99.90;;;;;;5037518;28;20043;-85
2022/06/18 05:39:07;;;;;;;19.90;13.25;;;20.00;99.90;;;;;;5055519;28;20044;-84
2022/06/18 05:41:32;;;;;;;20.55;13.40;;;20.10;99.90;;;;;;5055825;28;20047;-84
2022/06/18 05:43:58;;;;;;;18.42;14.10;;;20.10;99.90;;;;;;5054257;28;20024;-85
2022/06/18 05:46:24;;;;;;;22.33;15.25;;;20.10;99.90;;;;;;5053665;28;20606;-84
2022/06/18 05:48:50;;;;;;;20.20;14.25;;;20.20;99.90;;;;;;5052840;28;20410;-84
2022/06/18 05:51:16;;;;;;;20.77;14.25;;;20.20;99.90;;;;;;5037406;28;20097;-85
2022/06/18 05:53:41;;;;;;;19.85;13.88;;;20.20;99.90;;;;;;5053020;28;20032;-85
2022/06/18 05:56:09;;;;;;;20.75;14.70;;;20.20;99.90;;;;;;5037147;28;20032;-85
2022/06/18 05:58:35;;;;;;;20.23;13.63;;;20.20;99.90;;;;;;5053941;28;20032;-85
2022/06/18 06:01:00;;;;;;;21.75;14.80;;;20.30;99.90;;;;;;5037128;28;20447;-84
2022/06/18 06:03:26;;;;;;;19.33;13.75;;;20.30;99.90;;;;;;5037370;28;20117;-84
2022/06/18 06:05:52;;;;;;;18.42;13.95;;;20.40;99.90;;;;;;5052099;28;20124;-85
2022/06/18 06:08:17;;;;;;;20.90;14.57;;;20.40;99.90;;;;;;5052788;28;20066;-85
2022/06/18 06:13:29;;;;;;;21.70;14.35;;;20.60;99.90;;;;;;5056915;28;20450;-85
2022/06/18 06:15:55;;;;;;;19.65;14.85;;;20.60;99.90;;;;;;5071892;28;20036;-84
2022/06/18 06:18:22;;;;;;;21.10;14.63;;;20.60;99.90;;;;;;5053454;28;20037;-84
2022/06/18 06:20:50;;;;;;;23.77;14.30;;;20.60;99.90;;;;;;5053377;28;20086;-85
2022/06/18 06:23:16;;;;;;;20.92;14.63;;;20.70;99.90;;;;;;5037186;28;20525;-84
2022/06/18 06:25:44;;;;;;;19.95;14.13;;;20.70;99.90;;;;;;5052183;28;20044;-84
2022/06/18 06:28:14;;;;;;;20.50;15.05;;;20.80;99.90;;;;;;5037407;28;20411;-84
2022/06/18 06:30:40;;;;;;;22.98;14.18;;;20.90;99.90;;;;;;5052705;28;20098;-85
2022/06/18 06:33:05;;;;;;;18.95;12.45;;;20.90;99.90;;;;;;5052222;28;20048;-85
2022/06/18 06:35:31;;;;;;;23.63;14.38;;;20.90;99.90;;;;;;5051786;28;20079;-84
2022/06/18 06:37:57;;;;;;;19.73;12.90;;;21.00;99.90;;;;;;5051308;28;20032;-85
2022/06/18 06:40:24;;;;;;;21.75;14.07;;;21.00;99.90;;;;;;5052707;28;20079;-85
2022/06/18 06:42:51;;;;;;;20.83;14.25;;;21.10;99.90;;;;;;5052950;28;20040;-85
2022/06/18 06:45:23;;;;;;;22.00;15.85;;;21.20;99.90;;;;;;5052842;28;20441;-84
2022/06/18 06:47:50;;;;;;;18.67;14.05;;;21.30;99.90;;;;;;5052297;28;20040;-85
2022/06/18 06:50:17;;;;;;;19.73;14.13;;;21.40;99.90;;;;;;5035638;28;20123;-85
2022/06/18 06:52:44;;;;;;;22.60;15.02;;;21.50;99.90;;;;;;5052577;28;20040;-85
2022/06/18 06:58:04;;;;;;;20.38;14.57;;;21.50;99.90;;;;;;5033302;28;20048;-85
2022/06/18 07:00:33;;;;;;;20.73;13.38;;;21.50;99.90;;;;;;5034442;28;20457;-85
2022/06/18 07:02:58;;;;;;;22.85;14.38;;;21.50;99.90;;;;;;5053507;28;20068;-85
2022/06/18 07:05:24;;;;;;;22.35;13.70;;;21.60;99.90;;;;;;5053408;28;20072;-85
2022/06/18 07:07:50;;;;;;;17.52;13.45;;;21.70;99.90;;;;;;5058637;28;20513;-85
2022/06/18 07:10:15;;;;;;;21.90;13.38;;;21.70;99.90;;;;;;5059943;28;20466;-85
2022/06/18 07:12:41;;;;;;;18.90;12.57;;;21.70;99.90;;;;;;5055698;28;20425;-83
2022/06/18 07:15:07;;;;;;;18.80;12.10;;;21.90;99.90;;;;;;5030367;28;20621;-84
2022/06/18 07:17:33;;;;;;;22.63;12.85;;;22.00;99.90;;;;;;5055572;28;20036;-85
2022/06/18 07:19:59;;;;;;;17.42;10.88;;;22.10;99.90;;;;;;5032782;28;20089;-85
2022/06/18 07:22:26;;;;;;;19.80;11.57;;;22.20;99.90;;;;;;5037485;28;20108;-85
2022/06/18 07:24:51;;;;;;;19.23;12.23;;;22.20;99.90;;;;;;5055673;28;20144;-85
2022/06/18 07:27:18;;;;;;;23.65;12.38;;;22.30;99.90;;;;;;5055431;28;20584;-85
2022/06/18 07:29:43;;;;;;;19.20;12.15;;;22.40;99.90;;;;;;5067527;28;20037;-85
2022/06/18 07:32:15;;;;;;;16.33;10.85;;;22.50;99.90;;;;;;5048148;28;20113;-85
2022/06/18 07:34:41;;;;;;;19.70;11.63;;;22.60;99.90;;;;;;5058318;28;20446;-84
2022/06/18 07:37:07;;;;;;;20.13;11.95;;;22.60;99.90;;;;;;5068947;28;20485;-85
2022/06/18 07:39:33;;;;;;;20.90;11.63;;;22.70;99.90;;;;;;5046296;28;20082;-85
2022/06/18 07:41:58;;;;;;;23.00;12.00;;;22.70;99.90;;;;;;5054613;28;20525;-85
2022/06/18 07:44:24;;;;;;;19.23;11.20;;;22.80;99.90;;;;;;5042366;28;20378;-85
2022/06/18 07:47:03;;;;;;;26.23;12.25;;;22.80;99.90;;;;;;5073093;28;20123;-85
2022/06/18 07:49:29;;;;;;;28.38;12.88;;;22.80;99.90;;;;;;5049906;28;20407;-85
2022/06/18 07:51:55;;;;;;;17.63;10.57;;;22.90;99.90;;;;;;5052931;28;20506;-86
2022/06/18 07:54:21;;;;;;;15.68;9.85;;;22.90;99.90;;;;;;5056170;28;20071;-85
2022/06/18 07:56:47;;;;;;;16.58;10.00;;;23.10;99.90;;;;;;5055947;28;20519;-86
2022/06/18 07:59:12;;;;;;;16.77;9.95;;;23.10;99.90;;;;;;5057071;28;20029;-85
2022/06/18 08:01:39;;;;;;;16.42;10.20;;;23.20;99.90;;;;;;5055008;28;20079;-85
2022/06/18 08:04:06;;;;;;;19.65;10.60;;;23.20;99.90;;;;;;5046319;28;20087;-85
2022/06/18 08:06:32;;;;;;;18.40;11.80;;;23.30;99.90;;;;;;5047091;28;20426;-85
2022/06/18 08:08:58;;;;;;;21.30;11.55;;;23.30;99.90;;;;;;5054437;28;20052;-85
2022/06/18 08:11:25;;;;;;;15.70;10.25;;;23.30;99.90;;;;;;5046607;28;20044;-85
2022/06/18 08:13:52;;;;;;;17.27;10.27;;;23.40;99.90;;;;;;5036203;28;20029;-85
2022/06/18 08:16:20;;;;;;;15.88;9.63;;;23.40;99.90;;;;;;5051406;28;20123;-85
2022/06/18 08:18:46;;;;;;;15.40;8.50;;;23.50;99.90;;;;;;5036994;28;20040;-85
2022/06/18 08:21:15;;;;;;;17.13;7.60;;;23.60;99.90;;;;;;5052194;28;20036;-85
2022/06/18 08:23:41;;;;;;;17.48;8.60;;;23.70;99.90;;;;;;5069892;28;20040;-85
2022/06/18 08:26:07;;;;;;;14.73;7.93;;;23.70;99.90;;;;;;5072301;28;20032;-85
2022/06/18 08:28:35;;;;;;;15.27;7.60;;;23.80;99.90;;;;;;5053795;28;20052;-85
2022/06/18 08:31:03;;;;;;;15.85;7.57;;;23.90;99.90;;;;;;5049577;28;20393;-86
2022/06/18 08:33:29;;;;;;;16.60;8.88;;;24.00;99.90;;;;;;5056018;28;20037;-86
2022/06/18 08:36:00;;;;;;;15.38;8.05;;;24.00;99.90;;;;;;5055367;28;20038;-85
2022/06/18 08:38:27;;;;;;;16.95;7.57;;;24.00;99.90;;;;;;5047779;28;20443;-85
2022/06/18 08:41:28;;;;;;;15.70;7.30;;;24.10;99.90;;;;;;5035497;28;20055;-85
2022/06/18 08:44:22;;;;;;;14.32;6.28;;;24.20;99.90;;;;;;5047462;28;20107;-85
2022/06/18 08:46:51;;;;;;;14.45;6.95;;;24.20;99.90;;;;;;5054828;28;20378;-85
2022/06/18 08:49:34;;;;;;;16.52;6.40;;;24.30;99.90;;;;;;5053555;28;20044;-86
2022/06/18 08:52:08;;;;;;;12.25;6.32;;;24.30;99.90;;;;;;5055272;28;20044;-86
2022/06/18 08:55:00;;;;;;;14.75;6.22;;;24.40;99.90;;;;;;5049840;28;20045;-85
2022/06/18 08:57:54;;;;;;;15.00;6.32;;;24.40;99.90;;;;;;5061303;28;20037;-85
2022/06/18 09:00:31;;;;;;;11.02;5.25;;;24.40;99.90;;;;;;5076177;28;20040;-85
2022/06/18 09:03:07;;;;;;;11.77;4.80;;;24.40;99.90;;;;;;5059038;28;20035;-85
2022/06/18 09:05:48;;;;;;;15.85;4.82;;;24.50;99.90;;;;;;5049587;28;20044;-85
2022/06/18 09:08:21;;;;;;;11.88;4.57;;;24.50;99.90;;;;;;5027834;28;20040;-84
2022/06/18 09:11:37;;;;;;;13.10;5.45;;;24.50;99.90;;;;;;5050287;28;20037;-85
2022/06/18 09:14:15;;;;;;;11.88;5.53;;;24.60;99.90;;;;;;5037004;28;20128;-85
2022/06/18 09:16:41;;;;;;;12.02;5.32;;;24.50;99.90;;;;;;5065832;28;20164;-85
2022/06/18 09:19:12;;;;;;;10.73;5.13;;;24.60;99.90;;;;;;5051241;28;20119;-85
2022/06/18 09:22:00;;;;;;;11.67;5.30;;;24.70;99.90;;;;;;5059133;28;20032;-85
2022/06/18 09:24:34;;;;;;;13.60;5.97;;;24.80;99.90;;;;;;5051108;28;20397;-85
2022/06/18 09:27:05;;;;;;;13.63;4.88;;;24.90;99.90;;;;;;5055504;28;20042;-85
2022/06/18 09:29:52;;;;;;;14.02;5.25;;;25.00;99.90;;;;;;5053332;28;20045;-86
2022/06/18 09:32:31;;;;;;;11.13;4.40;;;25.10;99.90;;;;;;5053871;28;20525;-85
2022/06/18 09:35:34;;;;;;;13.43;5.00;;;25.20;99.90;;;;;;5054561;28;20102;-85
2022/06/18 09:38:16;;;;;;;12.05;4.57;;;25.30;99.90;;;;;;5049470;28;20032;-85
2022/06/18 09:40:49;;;;;;;12.65;4.07;;;25.40;99.90;;;;;;5034852;28;20040;-85
2022/06/18 09:43:27;;;;;;;10.88;4.75;;;25.50;99.90;;;;;;5052498;28;20064;-85
2022/06/18 09:46:01;;;;;;;11.27;3.63;;;25.50;99.90;;;;;;5036932;28;20055;-85
2022/06/18 09:48:27;;;;;;;9.95;3.78;;;25.60;99.90;;;;;;5071753;28;20136;-85
2022/06/18 09:51:04;;;;;;;12.30;4.25;;;25.60;99.90;;;;;;5036435;28;20127;-86
2022/06/18 09:53:40;;;;;;;12.18;4.20;;;25.70;99.90;;;;;;5053838;28;20041;-86
2022/06/18 09:56:26;;;;;;;12.27;3.83;;;25.80;99.90;;;;;;5053666;28;20059;-85
2022/06/18 09:58:56;;;;;;;10.27;3.55;;;25.90;99.90;;;;;;5053884;28;20067;-86
2022/06/18 10:01:30;;;;;;;11.18;3.88;;;25.90;99.90;;;;;;5052975;28;20117;-85
2022/06/18 10:06:53;;;;;;;11.70;4.20;;;26.10;99.90;;;;;;5053570;28;20079;-85
2022/06/18 10:09:34;;;;;;;8.75;3.40;;;26.20;99.90;;;;;;5052158;28;20036;-85
2022/06/18 10:12:14;;;;;;;11.30;3.80;;;26.30;99.90;;;;;;5037318;28;20115;-85
2022/06/18 10:14:40;;;;;;;9.13;3.92;;;26.40;99.90;;;;;;5053128;28;20285;-86
2022/06/18 10:17:39;;;;;;;11.40;4.15;;;26.50;99.90;;;;;;5036691;28;20141;-85
2022/06/18 10:20:21;;;;;;;11.40;5.25;;;26.60;99.90;;;;;;5053674;28;20036;-85
2022/06/18 10:23:03;;;;;;;10.52;4.28;;;26.70;99.90;;;;;;5052212;28;20048;-85
2022/06/18 10:26:04;;;;;;;11.35;3.70;;;26.80;99.90;;;;;;5037121;28;20032;-85
2022/06/18 10:28:45;;;;;;;11.75;4.38;;;26.90;99.90;;;;;;5051375;28;20114;-86
2022/06/18 10:31:43;;;;;;;10.90;4.20;;;27.00;99.90;;;;;;5053094;28;20040;-86
2022/06/18 10:34:55;;;;;;;11.50;3.90;;;27.10;99.90;;;;;;5053296;28;20193;-85
2022/06/18 10:37:24;;;;;;;12.52;4.45;;;27.10;99.30;;;;;;5067875;28;20056;-86
2022/06/18 10:40:16;;;;;;;13.77;3.60;;;27.20;97.60;;;;;;5052577;28;20072;-85
2022/06/18 10:43:12;;;;;;;11.07;3.25;;;27.10;96.30;;;;;;5053515;28;20512;-85
2022/06/18 10:45:53;;;;;;;9.07;3.10;;;27.20;98.10;;;;;;5036078;28;20439;-85
2022/06/18 10:48:23;;;;;;;11.25;3.40;;;27.30;97.20;;;;;;5033048;28;20102;-86
2022/06/18 10:50:55;;;;;;;9.57;3.30;;;27.40;99.60;;;;;;5032534;28;20033;-86
2022/06/18 10:53:24;;;;;;;8.98;3.20;;;27.50;98.80;;;;;;5050034;28;20051;-86
2022/06/18 10:56:03;;;;;;;10.23;3.10;;;27.60;98.60;;;;;;5053286;28;20040;-85
2022/06/18 10:58:29;;;;;;;10.82;3.28;;;27.70;95.90;;;;;;5052127;28;20064;-85
2022/06/18 11:00:58;;;;;;;9.60;3.30;;;27.70;97.20;;;;;;5053120;28;20101;-85
2022/06/18 11:03:28;;;;;;;10.52;3.22;;;27.80;93.40;;;;;;5036674;28;20512;-86
2022/06/18 11:05:55;;;;;;;9.30;3.03;;;27.70;94.10;;;;;;5036179;28;20045;-86
2022/06/18 11:08:28;;;;;;;9.05;3.17;;;27.60;93.70;;;;;;5052783;28;20040;-86
2022/06/18 11:10:58;;;;;;;12.95;3.72;;;27.70;96.00;;;;;;5051686;28;20082;-86
2022/06/18 11:13:35;;;;;;;9.18;3.20;;;27.80;95.40;;;;;;5052312;28;20045;-85
2022/06/18 11:16:17;;;;;;;8.60;3.00;;;27.90;93.70;;;;;;5053139;28;20040;-86
2022/06/18 11:18:46;;;;;;;9.63;3.88;;;27.90;96.80;;;;;;5052447;28;20327;-86
2022/06/18 11:21:25;;;;;;;11.45;3.40;;;28.00;94.20;;;;;;5052461;28;20186;-85
2022/06/18 11:24:05;;;;;;;11.15;3.30;;;28.10;92.60;;;;;;5052611;28;20123;-86
2022/06/18 11:26:31;;;;;;;8.93;3.13;;;28.10;91.20;;;;;;5052988;28;20036;-85
2022/06/18 11:29:04;;;;;;;10.85;3.88;;;28.00;91.60;;;;;;5052003;28;20044;-85
2022/06/18 11:31:34;;;;;;;9.77;3.03;;;27.90;91.10;;;;;;5052288;28;20064;-86
2022/06/18 11:34:20;;;;;;;9.45;3.35;;;27.90;97.20;;;;;;5053134;28;20075;-86
2022/06/18 11:36:52;;;;;;;11.32;4.43;;;28.10;98.10;;;;;;5052234;28;20037;-86
2022/06/18 11:39:24;;;;;;;12.65;5.28;;;28.40;98.10;;;;;;5035858;28;20035;-86
2022/06/18 11:41:54;;;;;;;12.18;4.85;;;28.50;96.00;;;;;;5052796;28;20059;-86
2022/06/18 11:44:27;;;;;;;8.95;3.45;;;28.70;95.20;;;;;;5069424;28;20378;-86
2022/06/18 11:47:03;;;;;;;10.45;3.38;;;28.70;93.10;;;;;;5052371;28;20127;-86
2022/06/18 11:49:33;;;;;;;9.70;3.70;;;28.60;93.30;;;;;;5054793;28;20128;-85
2022/06/18 11:52:02;;;;;;;9.48;3.25;;;28.50;89.30;;;;;;5056102;28;20049;-86
2022/06/18 11:54:31;;;;;;;9.27;3.45;;;28.30;86.40;;;;;;5039694;28;20390;-86
2022/06/18 11:57:38;;;;;;;11.32;3.42;;;28.20;86.20;;;;;;5055576;28;20382;-86
2022/06/18 12:00:16;;;;;;;10.45;3.10;;;28.30;94.40;;;;;;4991010;28;20049;-86
2022/06/18 12:03:06;;;;;;;11.85;3.70;;;28.30;97.10;;;;;;4993312;28;20046;-86
2022/06/18 12:05:46;;;;;;;14.75;3.83;;;28.20;92.40;;;;;;5024557;28;20126;-86
2022/06/18 12:08:18;;;;;;;10.63;3.60;;;28.20;92.60;;;;;;5044344;28;20055;-86
2022/06/18 12:11:04;;;;;;;12.17;4.03;;;28.10;90.30;;;;;;5054237;28;20048;-86
2022/06/18 12:13:40;;;;;;;11.63;3.67;;;28.10;93.70;;;;;;5037832;28;20303;-86
2022/06/18 12:16:35;;;;;;;12.93;4.07;;;28.20;94.90;;;;;;5054675;28;20044;-86
2022/06/18 12:19:23;;;;;;;11.02;3.53;;;28.40;94.90;;;;;;5038733;28;20494;-86
2022/06/18 12:21:54;;;;;;;9.18;3.40;;;28.60;95.10;;;;;;5053747;28;20036;-86
2022/06/18 12:24:33;;;;;;;11.38;3.58;;;28.80;92.80;;;;;;5038556;28;20051;-85
2022/06/18 12:27:10;;;;;;;10.32;3.58;;;29.00;90.80;;;;;;5053709;28;20040;-86
2022/06/18 12:29:44;;;;;;;10.90;3.25;;;29.10;90.70;;;;;;5072135;28;20113;-86
2022/06/18 12:32:46;;;;;;;8.52;3.38;;;29.20;87.70;;;;;;5054690;28;20044;-86
2022/06/18 12:35:38;;;;;;;10.07;3.05;;;29.40;86.90;;;;;;5054370;28;20406;-86
2022/06/18 12:38:31;;;;;;;11.00;3.05;;;29.50;90.00;;;;;;5055291;28;20059;-86
2022/06/18 12:41:15;;;;;;;8.80;2.90;;;29.60;90.20;;;;;;5037831;28;20407;-86
2022/06/18 12:44:09;;;;;;;9.52;3.33;;;29.60;90.50;;;;;;5038349;28;20485;-86
2022/06/18 12:46:43;;;;;;;10.07;3.13;;;29.70;90.10;;;;;;5054053;28;20398;-86
2022/06/18 12:49:29;;;;;;;11.32;3.65;;;29.70;90.70;;;;;;5053487;28;20041;-86
2022/06/18 12:52:07;;;;;;;11.45;3.20;;;29.80;88.70;;;;;;5053291;28;20105;-86
2022/06/18 12:55:04;;;;;;;13.07;3.45;;;29.90;90.50;;;;;;5052229;28;20043;-86
2022/06/18 12:57:56;;;;;;;9.82;3.45;;;30.00;88.60;;;;;;5052193;28;20043;-86
2022/06/18 13:00:35;;;;;;;10.35;3.40;;;30.20;91.70;;;;;;5045513;28;20040;-86
2022/06/18 13:03:27;;;;;;;12.15;3.53;;;30.40;91.10;;;;;;5050772;28;20039;-86
2022/06/18 13:06:04;;;;;;;11.93;3.25;;;30.50;90.30;;;;;;5054341;28;20504;-86
2022/06/18 13:08:54;;;;;;;10.73;3.38;;;30.60;84.70;;;;;;5055332;28;20052;-86
2022/06/18 13:11:20;;;;;;;11.32;3.20;;;30.70;83.10;;;;;;5051703;28;20040;-86
2022/06/18 13:14:12;;;;;;;10.70;3.22;;;30.70;81.70;;;;;;5054826;28;20040;-86
2022/06/18 13:16:47;;;;;;;10.27;3.30;;;30.80;81.20;;;;;;5051147;28;20535;-85